createdAt,value
2022-12-23T00:00:29.773Z,100583.72
2022-12-23T00:02:57.844Z,100583.66
2022-12-23T00:05:25.988Z,100581.16
2022-12-23T00:07:55.300Z,100585.22
2022-12-23T00:10:23.247Z,100588.44
2022-12-23T00:13:08.589Z,100589.19
2022-12-23T00:15:36.516Z,100601.31
2022-12-23T00:18:04.613Z,100595.50
2022-12-23T00:20:34.352Z,100605.59
2022-12-23T00:23:06.534Z,100600.50
2022-12-23T00:25:42.060Z,100596.22
2022-12-23T00:28:11.825Z,100591.97
2022-12-23T00:30:46.468Z,100591.97
2022-12-23T00:33:14.880Z,100595.25
2022-12-23T00:35:42.991Z,100590.97
2022-12-23T00:38:12.475Z,100573.16
2022-12-23T00:40:57.791Z,100584.09
2022-12-23T00:43:25.760Z,100581.59
2022-12-23T00:45:53.831Z,100570.69
2022-12-23T00:48:38.913Z,100583.34
2022-12-23T00:51:07.403Z,100573.16
2022-12-23T00:53:36.734Z,100572.31
2022-12-23T00:56:04.772Z,100570.63
2022-12-23T00:58:33.082Z,100569.78
2022-12-23T01:01:18.261Z,100562.09
2022-12-23T01:04:03.847Z,100564.56
2022-12-23T01:06:31.795Z,100555.16
2022-12-23T01:09:01.120Z,100551.75
2022-12-23T01:11:29.079Z,100544.09
2022-12-23T01:13:56.990Z,100549.19
2022-12-23T01:16:24.943Z,100544.09
2022-12-23T01:18:52.906Z,100537.25
2022-12-23T01:21:20.855Z,100538.88
2022-12-23T01:23:48.773Z,100532.94
2022-12-23T01:26:18.063Z,100533.78
2022-12-23T01:28:46.878Z,100530.38
2022-12-23T01:31:14.880Z,100540.56
2022-12-23T01:33:43.000Z,100532.88
2022-12-23T01:36:12.034Z,100525.25
2022-12-23T01:38:39.998Z,100528.59
2022-12-23T01:41:07.991Z,100534.50
2022-12-23T01:43:47.584Z,100532.84
2022-12-23T01:46:15.588Z,100535.34
2022-12-23T01:48:46.845Z,100533.59
2022-12-23T01:51:19.478Z,100531.06
2022-12-23T01:53:51.567Z,100533.59
2022-12-23T01:56:24.729Z,100533.59
2022-12-23T01:58:57.458Z,100536.13
2022-12-23T02:01:43.984Z,100529.31
2022-12-23T02:04:17.220Z,100540.34
2022-12-23T02:07:04.273Z,100523.31
2022-12-23T02:09:34.616Z,100524.13
2022-12-23T02:12:38.369Z,100522.41
2022-12-23T02:15:42.876Z,100511.34
2022-12-23T02:18:28.538Z,100517.28
2022-12-23T02:21:32.666Z,100508.72
2022-12-23T02:24:33.155Z,100506.19
2022-12-23T02:27:13.055Z,100508.75
2022-12-23T02:30:20.324Z,100505.34
2022-12-23T02:33:06.460Z,100506.34
2022-12-23T02:35:43.639Z,100501.16
2022-12-23T02:38:15.662Z,100487.59
2022-12-23T02:40:54.935Z,100491.78
2022-12-23T02:43:31.144Z,100484.94
2022-12-23T02:46:04.156Z,100486.50
2022-12-23T02:48:39.975Z,100477.16
2022-12-23T02:51:10.958Z,100478.09
2022-12-23T02:53:43.607Z,100484.03
2022-12-23T02:56:13.698Z,100482.22
2022-12-23T02:58:48.416Z,100488.97
2022-12-23T03:01:19.014Z,100488.97
2022-12-23T03:03:49.648Z,100481.31
2022-12-23T03:06:23.264Z,100475.28
2022-12-23T03:08:57.025Z,100468.50
2022-12-23T03:11:40.215Z,100470.19
2022-12-23T03:14:43.211Z,100471.00
2022-12-23T03:17:25.994Z,100473.53
2022-12-23T03:20:02.429Z,100465.03
2022-12-23T03:22:37.132Z,100466.75
2022-12-23T03:25:10.085Z,100474.31
2022-12-23T03:27:42.189Z,100470.00
2022-12-23T03:30:14.246Z,100467.44
2022-12-23T03:32:47.220Z,100469.13
2022-12-23T03:35:20.630Z,100482.72
2022-12-23T03:37:51.684Z,100466.75
2022-12-23T03:40:24.321Z,100472.56
2022-12-23T03:42:56.223Z,100475.19
2022-12-23T03:45:40.067Z,100478.63
2022-12-23T03:48:10.938Z,100482.06
2022-12-23T03:50:42.968Z,100479.50
2022-12-23T03:53:15.771Z,100484.41
2022-12-23T03:55:48.711Z,100483.53
2022-12-23T03:58:25.667Z,100481.81
2022-12-23T04:01:01.061Z,100470.81
2022-12-23T04:03:36.139Z,100468.41
2022-12-23T04:06:12.023Z,100472.16
2022-12-23T04:08:41.113Z,100476.09
2022-12-23T04:11:09.529Z,100481.81
2022-12-23T04:13:37.710Z,100469.94
2022-12-23T04:16:06.674Z,100460.44
2022-12-23T04:18:34.672Z,100450.59
2022-12-23T04:21:02.645Z,100465.81
2022-12-23T04:23:31.954Z,100468.28
2022-12-23T04:25:59.923Z,100470.63
2022-12-23T04:28:27.851Z,100472.38
2022-12-23T04:30:55.801Z,100477.38
2022-12-23T04:33:23.741Z,100474.75
2022-12-23T04:35:51.686Z,100464.53
2022-12-23T04:38:19.618Z,100480.75
2022-12-23T04:40:48.927Z,100482.78
2022-12-23T04:43:16.891Z,100478.41
2022-12-23T04:45:44.776Z,100473.31
2022-12-23T04:48:12.723Z,100476.66
2022-12-23T04:50:40.799Z,100480.09
2022-12-23T04:53:08.723Z,100483.38
2022-12-23T04:55:36.681Z,100483.38
2022-12-23T04:58:06.015Z,100481.88
2022-12-23T05:00:39.215Z,100469.81
2022-12-23T05:03:08.057Z,100474.03
2022-12-23T05:05:36.099Z,100483.38
2022-12-23T05:08:05.483Z,100480.16
2022-12-23T05:10:33.815Z,100474.25
2022-12-23T05:13:01.794Z,100492.19
2022-12-23T05:15:33.138Z,100488.88
2022-12-23T05:18:01.096Z,100493.13
2022-12-23T05:20:29.029Z,100495.63
2022-12-23T05:22:56.933Z,100496.34
2022-12-23T05:25:24.846Z,100497.19
2022-12-23T05:27:52.757Z,100495.50
2022-12-23T05:30:20.915Z,100503.97
2022-12-23T05:32:54.182Z,100504.09
2022-12-23T05:35:22.176Z,100484.59
2022-12-23T05:37:50.106Z,100501.53
2022-12-23T05:40:23.247Z,100504.03
2022-12-23T05:42:51.844Z,100510.03
2022-12-23T05:45:20.488Z,100517.66
2022-12-23T05:47:48.469Z,100523.63
2022-12-23T05:50:18.011Z,100524.44
2022-12-23T05:52:45.931Z,100524.44
2022-12-23T05:55:13.909Z,100510.94
2022-12-23T05:57:41.810Z,100517.63
2022-12-23T06:00:11.076Z,100505.72
2022-12-23T06:02:39.199Z,100512.47
2022-12-23T06:05:07.909Z,100511.56
2022-12-23T06:07:37.581Z,100501.28
2022-12-23T06:10:06.322Z,100507.31
2022-12-23T06:12:34.364Z,100505.72
2022-12-23T06:15:02.399Z,100522.91
2022-12-23T06:17:30.378Z,100524.53
2022-12-23T06:19:58.440Z,100505.72
2022-12-23T06:22:26.397Z,100531.16
2022-12-23T06:24:55.708Z,100534.38
2022-12-23T06:27:23.743Z,100534.22
2022-12-23T06:29:51.693Z,100540.03
2022-12-23T06:32:19.732Z,100540.81
2022-12-23T06:34:49.691Z,100536.41
2022-12-23T06:37:17.627Z,100544.84
2022-12-23T06:39:45.558Z,100532.88
2022-12-23T06:42:14.898Z,100529.78
2022-12-23T06:44:42.815Z,100548.97
2022-12-23T06:47:10.929Z,100537.75
2022-12-23T06:49:38.896Z,100531.63
2022-12-23T06:52:06.856Z,100520.47
2022-12-23T06:54:34.896Z,100514.38
2022-12-23T06:57:03.002Z,100521.00
2022-12-23T06:59:32.278Z,100531.97
2022-12-23T07:02:00.484Z,100540.44
2022-12-23T07:04:28.509Z,100527.44
2022-12-23T07:06:57.891Z,100528.16
2022-12-23T07:09:26.307Z,100528.91
2022-12-23T07:11:54.320Z,100536.50
2022-12-23T07:14:22.519Z,100538.09
2022-12-23T07:16:51.864Z,100546.59
2022-12-23T07:19:19.839Z,100550.59
2022-12-23T07:21:47.822Z,100547.81
2022-12-23T07:24:15.734Z,100551.72
2022-12-23T07:26:43.753Z,100548.00
2022-12-23T07:29:11.688Z,100541.94
2022-12-23T07:31:41.306Z,100536.00
2022-12-23T07:34:11.213Z,100533.28
2022-12-23T07:36:39.156Z,100532.28
2022-12-23T07:39:07.499Z,100532.16
2022-12-23T07:41:35.460Z,100536.09
2022-12-23T07:44:03.431Z,100539.44
2022-12-23T07:46:31.544Z,100538.31
2022-12-23T07:48:59.484Z,100542.34
2022-12-23T07:51:28.813Z,100548.91
2022-12-23T07:53:56.735Z,100552.63
2022-12-23T07:56:24.750Z,100551.41
2022-12-23T07:58:54.113Z,100525.88
2022-12-23T08:01:22.715Z,100549.91
2022-12-23T08:03:50.740Z,100548.16
2022-12-23T08:06:18.647Z,100541.09
2022-12-23T08:08:48.085Z,100549.28
2022-12-23T08:11:16.949Z,100536.13
2022-12-23T08:13:46.209Z,100539.19
2022-12-23T08:16:14.298Z,100533.88
2022-12-23T08:18:43.153Z,100540.28
2022-12-23T08:21:14.765Z,100531.59
2022-12-23T08:23:43.662Z,100531.94
2022-12-23T08:26:15.566Z,100527.25
2022-12-23T08:28:45.090Z,100526.84
2022-12-23T08:31:14.837Z,100540.88
2022-12-23T08:33:44.926Z,100538.53
2022-12-23T08:36:20.816Z,100530.47
2022-12-23T08:38:51.056Z,100525.03
2022-12-23T08:41:23.019Z,100524.88
2022-12-23T08:43:51.401Z,100516.22
2022-12-23T08:46:19.561Z,100510.84
2022-12-23T08:48:49.702Z,100494.41
2022-12-23T08:51:19.832Z,100503.16
2022-12-23T08:53:48.429Z,100498.06
2022-12-23T08:56:19.930Z,100497.28
2022-12-23T08:58:52.777Z,100502.66
2022-12-23T09:01:23.006Z,100502.09
2022-12-23T09:03:51.490Z,100500.00
2022-12-23T09:06:28.287Z,100498.63
2022-12-23T09:08:57.292Z,100501.34
2022-12-23T09:11:28.255Z,100496.56
2022-12-23T09:13:59.551Z,100492.31
2022-12-23T09:16:27.972Z,100508.72
2022-12-23T09:18:56.400Z,100497.16
2022-12-23T09:21:25.239Z,100488.78
2022-12-23T09:23:53.462Z,100487.63
2022-12-23T09:26:24.520Z,100494.34
2022-12-23T09:28:53.006Z,100481.22
2022-12-23T09:31:23.203Z,100470.91
2022-12-23T09:33:53.387Z,100485.00
2022-12-23T09:36:22.874Z,100485.13
2022-12-23T09:38:55.817Z,100483.56
2022-12-23T09:42:01.457Z,100479.31
2022-12-23T09:44:56.860Z,100481.91
2022-12-23T09:47:29.708Z,100481.06
2022-12-23T09:50:02.394Z,100488.31
2022-12-23T09:52:41.624Z,100478.66
2022-12-23T09:55:12.172Z,100476.72
2022-12-23T09:57:47.225Z,100474.97
2022-12-23T10:00:17.996Z,100477.59
2022-12-23T10:03:05.954Z,100484.47
2022-12-23T10:05:42.554Z,100481.69
2022-12-23T10:08:15.502Z,100477.81
2022-12-23T10:10:46.496Z,100484.13
2022-12-23T10:13:24.579Z,100477.66
2022-12-23T10:15:53.975Z,100480.66
2022-12-23T10:18:29.184Z,100474.44
2022-12-23T10:21:04.248Z,100470.66
2022-12-23T10:23:37.674Z,100461.56
2022-12-23T10:26:13.563Z,100466.41
2022-12-23T10:28:41.468Z,100474.88
2022-12-23T10:34:18.806Z,100462.41
2022-12-23T10:36:54.797Z,100460.72
2022-12-23T10:39:32.109Z,100456.69
2022-12-23T10:42:09.736Z,100461.38
2022-12-23T10:44:49.732Z,100451.38
2022-12-23T10:47:26.662Z,100452.78
2022-12-23T10:50:09.783Z,100449.66
2022-12-23T10:52:41.250Z,100450.84
2022-12-23T10:55:21.380Z,100458.22
2022-12-23T10:57:50.765Z,100461.78
2022-12-23T11:00:23.802Z,100452.38
2022-12-23T11:03:05.293Z,100446.63
2022-12-23T11:05:35.639Z,100455.34
2022-12-23T11:08:03.716Z,100449.38
2022-12-23T11:10:34.229Z,100441.78
2022-12-23T11:13:02.691Z,100454.34
2022-12-23T11:15:33.785Z,100459.28
2022-12-23T11:18:04.702Z,100449.53
2022-12-23T11:20:35.302Z,100445.63
2022-12-23T11:23:04.924Z,100429.00
2022-12-23T11:25:37.552Z,100448.53
2022-12-23T11:28:09.443Z,100445.22
2022-12-23T11:30:41.020Z,100437.31
2022-12-23T11:33:22.448Z,100424.22
2022-12-23T11:36:01.789Z,100437.78
2022-12-23T11:38:29.943Z,100427.53
2022-12-23T11:40:58.221Z,100438.81
2022-12-23T11:43:27.421Z,100433.06
2022-12-23T11:46:25.218Z,100432.78
2022-12-23T11:49:15.332Z,100430.22
2022-12-23T11:51:46.048Z,100429.44
2022-12-23T11:54:19.460Z,100428.47
2022-12-23T11:56:51.471Z,100437.00
2022-12-23T11:59:33.135Z,100431.88
2022-12-23T12:02:03.555Z,100434.41
2022-12-23T12:04:34.885Z,100432.94
2022-12-23T12:07:06.179Z,100425.56
2022-12-23T12:09:35.475Z,100403.75
2022-12-23T12:12:07.001Z,100429.91
2022-12-23T12:14:42.143Z,100433.88
2022-12-23T12:17:17.603Z,100434.94
2022-12-23T12:19:57.440Z,100425.19
2022-12-23T12:22:34.228Z,100432.41
2022-12-23T12:25:18.172Z,100431.88
2022-12-23T12:27:52.808Z,100436.59
2022-12-23T12:30:22.806Z,100432.19
2022-12-23T12:32:57.200Z,100435.06
2022-12-23T12:35:32.159Z,100433.53
2022-12-23T12:38:06.983Z,100434.75
2022-12-23T12:40:40.033Z,100421.53
2022-12-23T12:43:19.403Z,100442.75
2022-12-23T12:45:54.018Z,100442.91
2022-12-23T12:48:39.100Z,100453.41
2022-12-23T12:51:17.301Z,100450.56
2022-12-23T12:54:04.470Z,100444.09
2022-12-23T12:56:41.046Z,100438.53
2022-12-23T12:59:16.782Z,100447.97
2022-12-23T13:01:54.074Z,100414.97
2022-12-23T13:04:48.721Z,100454.25
2022-12-23T13:07:26.733Z,100448.06
2022-12-23T13:10:04.646Z,100449.00
2022-12-23T13:12:47.113Z,100447.97
2022-12-23T13:15:23.212Z,100462.44
2022-12-23T13:18:08.833Z,100452.94
2022-12-23T13:20:44.019Z,100459.09
2022-12-23T13:23:42.227Z,100449.66
2022-12-23T13:26:24.659Z,100440.22
2022-12-23T13:29:03.908Z,100449.81
2022-12-23T13:31:45.920Z,100451.66
2022-12-23T13:34:30.384Z,100446.56
2022-12-23T13:37:08.316Z,100452.25
2022-12-23T13:39:51.119Z,100443.16
2022-12-23T13:42:29.463Z,100452.34
2022-12-23T13:44:59.360Z,100442.44
2022-12-23T13:47:42.574Z,100440.94
2022-12-23T13:50:16.155Z,100449.34
2022-12-23T13:53:02.196Z,100461.03
2022-12-23T13:55:48.482Z,100450.72
2022-12-23T13:58:21.964Z,100455.59
2022-12-23T14:00:58.595Z,100453.53
2022-12-23T14:03:33.731Z,100448.28
2022-12-23T14:06:21.081Z,100452.03
2022-12-23T14:08:49.767Z,100448.97
2022-12-23T14:11:22.040Z,100455.66
2022-12-23T14:13:59.509Z,100461.94
2022-12-23T14:16:38.349Z,100450.09
2022-12-23T14:19:32.752Z,100444.94
2022-12-23T14:22:14.314Z,100453.22
2022-12-23T14:25:17.175Z,100445.28
2022-12-23T14:27:56.197Z,100448.47
2022-12-23T14:30:34.879Z,100452.59
2022-12-23T14:33:06.269Z,100446.44
2022-12-23T14:35:56.004Z,100451.44
2022-12-23T14:38:29.842Z,100452.47
2022-12-23T14:41:23.941Z,100455.72
2022-12-23T14:43:59.852Z,100433.03
2022-12-23T14:46:59.861Z,100464.28
2022-12-23T14:49:41.049Z,100466.09
2022-12-23T14:52:49.135Z,100462.78
2022-12-23T14:55:42.556Z,100461.38
2022-12-23T14:58:47.538Z,100464.38
2022-12-23T15:01:19.328Z,100467.81
2022-12-23T15:03:56.026Z,100462.69
2022-12-23T15:06:36.480Z,100453.56
2022-12-23T15:09:06.001Z,100473.50
2022-12-23T15:11:35.984Z,100474.47
2022-12-23T15:14:08.079Z,100476.31
2022-12-23T15:16:38.737Z,100479.81
2022-12-23T15:19:19.990Z,100487.53
2022-12-23T15:21:53.739Z,100485.88
2022-12-23T15:24:26.188Z,100464.72
2022-12-23T15:27:25.312Z,100481.72
2022-12-23T15:29:47.190Z,100472.72
2022-12-23T15:32:15.223Z,100490.78
2022-12-23T15:34:45.333Z,100472.22
2022-12-23T15:37:16.962Z,100482.16
2022-12-23T15:39:45.739Z,100481.31
2022-12-23T15:42:24.287Z,100485.75
2022-12-23T15:44:52.795Z,100484.22
2022-12-23T15:47:30.289Z,100477.38
2022-12-23T15:50:00.962Z,100474.16
2022-12-23T15:52:31.171Z,100479.06
2022-12-23T15:55:03.864Z,100482.56
2022-12-23T15:57:32.599Z,100494.94
2022-12-23T16:00:00.930Z,100490.75
2022-12-23T16:02:59.794Z,100492.44
2022-12-23T16:05:30.160Z,100501.63
2022-12-23T16:08:11.937Z,100492.31
2022-12-23T16:10:40.312Z,100495.72
2022-12-23T16:13:18.120Z,100493.41
2022-12-23T16:15:46.383Z,100495.91
2022-12-23T16:18:20.888Z,100485.00
2022-12-23T16:20:53.640Z,100495.16
2022-12-23T16:23:22.741Z,100486.75
2022-12-23T16:25:54.024Z,100497.28
2022-12-23T16:28:24.584Z,100497.25
2022-12-23T16:30:54.714Z,100500.59
2022-12-23T16:33:35.067Z,100499.75
2022-12-23T16:36:21.931Z,100508.19
2022-12-23T16:38:52.173Z,100508.19
2022-12-23T16:41:20.878Z,100509.94
2022-12-23T16:43:52.392Z,100511.59
2022-12-23T16:46:23.452Z,100514.19
2022-12-23T16:48:53.156Z,100525.31
2022-12-23T16:51:25.808Z,100522.56
2022-12-23T16:53:56.446Z,100509.84
2022-12-23T16:56:28.609Z,100520.78
2022-12-23T16:58:56.605Z,100515.00
2022-12-23T17:01:27.188Z,100521.72
2022-12-23T17:03:55.996Z,100496.28
2022-12-23T17:06:26.522Z,100515.91
2022-12-23T17:08:54.477Z,100511.47
2022-12-23T17:11:26.950Z,100510.28
2022-12-23T17:14:01.400Z,100513.25
2022-12-23T17:16:32.225Z,100505.25
2022-12-23T17:19:00.311Z,100504.31
2022-12-23T17:21:32.672Z,100502.50
2022-12-23T17:24:06.488Z,100501.16
2022-12-23T17:26:34.575Z,100510.41
2022-12-23T17:29:03.571Z,100508.50
2022-12-23T17:31:31.677Z,100515.16
2022-12-23T17:33:59.656Z,100514.44
2022-12-23T17:36:29.195Z,100512.88
2022-12-23T17:38:57.242Z,100514.00
2022-12-23T17:41:29.637Z,100507.41
2022-12-23T17:43:58.455Z,100510.09
2022-12-23T17:46:27.012Z,100512.81
2022-12-23T17:48:57.199Z,100502.75
2022-12-23T17:51:25.352Z,100502.97
2022-12-23T17:53:58.236Z,100500.84
2022-12-23T17:56:28.789Z,100501.03
2022-12-23T17:58:56.864Z,100508.16
2022-12-23T18:01:27.947Z,100509.34
2022-12-23T18:03:57.627Z,100497.84
2022-12-23T18:06:27.421Z,100510.28
2022-12-23T18:08:57.064Z,100521.38
2022-12-23T18:11:31.355Z,100515.13
2022-12-23T18:13:59.216Z,100522.22
2022-12-23T18:16:27.232Z,100527.81
2022-12-23T18:18:55.360Z,100530.00
2022-12-23T18:21:26.150Z,100536.72
2022-12-23T18:23:57.772Z,100541.28
2022-12-23T18:26:27.911Z,100540.16
2022-12-23T18:28:55.887Z,100540.94
2022-12-23T18:31:27.385Z,100540.69
2022-12-23T18:33:55.742Z,100548.22
2022-12-23T18:36:25.413Z,100546.63
2022-12-23T18:38:54.120Z,100537.72
2022-12-23T18:41:24.204Z,100536.31
2022-12-23T18:43:52.608Z,100541.56
2022-12-23T18:46:21.127Z,100551.72
2022-12-23T18:48:49.627Z,100543.13
2022-12-23T18:51:19.289Z,100539.81
2022-12-23T18:53:47.956Z,100549.06
2022-12-23T18:56:16.537Z,100531.31
2022-12-23T18:58:45.862Z,100531.47
2022-12-23T19:01:14.617Z,100536.53
2022-12-23T19:03:43.278Z,100527.38
2022-12-23T19:06:14.062Z,100531.13
2022-12-23T19:08:42.095Z,100536.56
2022-12-23T19:11:14.120Z,100536.59
2022-12-23T19:13:42.330Z,100538.22
2022-12-23T19:16:15.464Z,100530.50
2022-12-23T19:18:43.690Z,100527.22
2022-12-23T19:21:11.675Z,100524.56
2022-12-23T19:23:41.184Z,100530.28
2022-12-23T19:26:10.493Z,100523.38
2022-12-23T19:28:39.031Z,100521.97
2022-12-23T19:31:08.808Z,100516.84
2022-12-23T19:33:41.975Z,100518.31
2022-12-23T19:36:11.189Z,100527.78
2022-12-23T19:38:39.237Z,100519.25
2022-12-23T19:41:07.401Z,100521.16
2022-12-23T19:43:36.080Z,100522.91
2022-12-23T19:46:05.907Z,100516.91
2022-12-23T19:48:34.094Z,100516.91
2022-12-23T19:51:06.421Z,100510.94
2022-12-23T19:53:34.941Z,100513.88
2022-12-23T19:56:04.651Z,100504.03
2022-12-23T19:58:33.976Z,100506.28
2022-12-23T20:01:10.312Z,100499.34
2022-12-23T20:03:38.988Z,100495.72
2022-12-23T20:06:09.678Z,100486.44
2022-12-23T20:08:37.589Z,100485.72
2022-12-23T20:11:07.609Z,100478.91
2022-12-23T20:13:36.396Z,100483.19
2022-12-23T20:16:04.995Z,100495.25
2022-12-23T20:18:33.754Z,100499.28
2022-12-23T20:21:02.086Z,100499.81
2022-12-23T20:23:32.331Z,100498.47
2022-12-23T20:26:00.716Z,100487.00
2022-12-23T20:28:29.302Z,100495.22
2022-12-23T20:31:02.280Z,100493.34
2022-12-23T20:33:30.304Z,100505.06
2022-12-23T20:35:58.362Z,100511.28
2022-12-23T20:38:26.316Z,100504.47
2022-12-23T20:40:55.604Z,100499.13
2022-12-23T20:43:23.619Z,100506.56
2022-12-23T20:45:52.593Z,100492.16
2022-12-23T20:48:21.773Z,100504.84
2022-12-23T20:50:50.197Z,100516.06
2022-12-23T20:53:18.221Z,100501.63
2022-12-23T20:55:46.255Z,100507.44
2022-12-23T20:58:33.461Z,100505.88
2022-12-23T21:01:09.443Z,100512.69
2022-12-23T21:03:37.658Z,100511.09
2022-12-23T21:06:06.289Z,100515.34
2022-12-23T21:08:34.428Z,100521.34
2022-12-23T21:11:02.432Z,100507.91
2022-12-23T21:13:31.770Z,100502.84
2022-12-23T21:16:02.407Z,100507.22
2022-12-23T21:18:30.380Z,100508.25
2022-12-23T21:21:00.821Z,100505.84
2022-12-23T21:23:29.762Z,100494.03
2022-12-23T21:26:12.509Z,100493.03
2022-12-23T21:28:43.067Z,100491.09
2022-12-23T21:31:11.518Z,100495.22
2022-12-23T21:33:42.155Z,100484.81
2022-12-23T21:36:17.831Z,100473.50
2022-12-23T21:38:48.179Z,100474.47
2022-12-23T21:41:18.674Z,100480.31
2022-12-23T21:43:48.329Z,100469.34
2022-12-23T21:46:17.793Z,100475.16
2022-12-23T21:48:46.446Z,100464.97
2022-12-23T21:51:16.241Z,100461.56
2022-12-23T21:53:45.538Z,100479.34
2022-12-23T21:56:16.600Z,100477.63
2022-12-23T21:58:45.238Z,100485.28
2022-12-23T22:01:16.461Z,100483.66
2022-12-23T22:03:45.093Z,100475.00
2022-12-23T22:06:14.889Z,100465.19
2022-12-23T22:08:42.887Z,100460.25
2022-12-23T22:11:12.715Z,100466.09
2022-12-23T22:13:41.702Z,100474.88
2022-12-23T22:16:12.066Z,100463.84
2022-12-23T22:18:41.521Z,100469.69
2022-12-23T22:21:11.227Z,100464.25
2022-12-23T22:23:40.000Z,100461.47
2022-12-23T22:26:08.855Z,100452.13
2022-12-23T22:28:40.208Z,100467.22
2022-12-23T22:31:12.659Z,100469.69
2022-12-23T22:33:42.093Z,100471.41
2022-12-23T22:36:12.073Z,100459.69
2022-12-23T22:38:40.079Z,100473.13
2022-12-23T22:41:08.925Z,100470.66
2022-12-23T22:43:36.877Z,100474.84
2022-12-23T22:46:05.198Z,100466.28
2022-12-23T22:48:33.464Z,100470.56
2022-12-23T22:51:07.052Z,100473.13
2022-12-23T22:53:35.196Z,100469.69
2022-12-23T22:56:04.574Z,100469.56
2022-12-23T22:58:34.132Z,100461.88
2022-12-23T23:01:02.193Z,100464.56
2022-12-23T23:03:30.251Z,100470.63
2022-12-23T23:05:59.765Z,100469.03
2022-12-23T23:08:29.763Z,100458.19
2022-12-23T23:10:58.417Z,100463.91
2022-12-23T23:13:26.741Z,100467.09
2022-12-23T23:15:54.722Z,100450.84
2022-12-23T23:18:23.612Z,100443.19
2022-12-23T23:20:52.153Z,100449.16
2022-12-23T23:23:20.588Z,100453.25
2022-12-23T23:25:49.916Z,100454.00
2022-12-23T23:28:17.972Z,100446.38
2022-12-23T23:30:46.157Z,100460.75
2022-12-23T23:33:14.214Z,100456.50
2022-12-23T23:35:42.206Z,100454.78
2022-12-23T23:38:10.239Z,100451.50
2022-12-23T23:40:38.392Z,100451.38
2022-12-23T23:43:07.701Z,100455.69
2022-12-23T23:45:35.688Z,100450.56
2022-12-23T23:48:04.160Z,100452.34
2022-12-23T23:50:32.074Z,100454.00
2022-12-23T23:53:00.024Z,100454.91
2022-12-23T23:55:27.965Z,100457.53
2022-12-23T23:57:55.887Z,100461.22
